Plainview, Texas
Current Conditions -  °F | °C
As of 7:15 PM on Friday 28 Nov 2014 (Local Time) from KPVW Reporting Station
Clear Clear  
Wind Chill: 60°   Ceiling: Unl
Heat Index: 60°   Visibility: 10mi
Dew Point: 24°   Wind: 10mph
Humidity: 26%   Direction: 220°SW
Pressure: 29.94"   Gusts: NA
Location:  34.2°N, 101.69°W
Report Text: KPVW 290115Z AUTO 22009KT 10SM CLR 16/M04 A2994 RMK AO2 T01551042
Loading
Personal Weather Stations






























Interactive Weather Map New forecast layout! Learn more

10-Day Weather Forecast

Advertisements
Track Severe Weather on mobile